createdAt,value
2019-02-14T00:00:09.901Z,2.70
2019-02-14T00:02:39.363Z,2.70
2019-02-14T00:05:16.157Z,2.70
2019-02-14T00:07:40.248Z,2.60
2019-02-14T00:10:10.159Z,2.60
2019-02-14T00:12:39.695Z,2.50
2019-02-14T00:15:09.589Z,2.50
2019-02-14T00:17:39.019Z,2.50
2019-02-14T00:20:08.779Z,2.60
2019-02-14T00:22:38.814Z,2.70
2019-02-14T00:25:08.321Z,2.70
2019-02-14T00:27:37.835Z,2.70
2019-02-14T00:30:07.951Z,2.90
2019-02-14T00:32:37.338Z,2.90
2019-02-14T00:35:07.433Z,3.00
2019-02-14T00:37:36.765Z,3.00
2019-02-14T00:40:06.166Z,3.00
2019-02-14T00:42:35.666Z,3.10
2019-02-14T00:45:05.440Z,3.10
2019-02-14T00:47:34.815Z,3.10
2019-02-14T00:50:04.247Z,3.10
2019-02-14T00:52:33.637Z,3.10
2019-02-14T00:55:03.024Z,3.20
2019-02-14T00:57:32.391Z,3.20
2019-02-14T01:00:01.833Z,3.20
2019-02-14T01:02:31.307Z,3.20
2019-02-14T01:05:00.658Z,3.20
2019-02-14T01:07:30.443Z,3.20
2019-02-14T01:09:59.943Z,3.20
2019-02-14T01:12:29.630Z,3.20
2019-02-14T01:14:59.150Z,3.20
2019-02-14T01:17:28.790Z,3.20
2019-02-14T01:19:58.250Z,3.30
2019-02-14T01:22:27.931Z,3.30
2019-02-14T01:24:57.342Z,3.20
2019-02-14T01:27:27.126Z,3.20
2019-02-14T01:29:56.812Z,3.20
2019-02-14T01:32:27.104Z,3.10
2019-02-14T01:34:57.756Z,3.10
2019-02-14T01:37:27.107Z,3.10
2019-02-14T01:39:56.618Z,3.10
2019-02-14T01:42:26.107Z,3.10
2019-02-14T01:44:55.675Z,3.10
2019-02-14T01:47:25.693Z,3.10
2019-02-14T01:49:54.999Z,3.10
2019-02-14T01:52:25.714Z,3.10
2019-02-14T01:54:54.988Z,3.10
2019-02-14T01:57:24.886Z,3.00
2019-02-14T01:59:54.282Z,3.00
2019-02-14T02:02:23.633Z,2.90
2019-02-14T02:04:52.962Z,2.90
2019-02-14T02:07:22.526Z,2.90
2019-02-14T02:09:52.014Z,2.90
2019-02-14T02:12:21.794Z,2.90
2019-02-14T02:14:51.218Z,2.90
2019-02-14T02:17:20.613Z,2.90
2019-02-14T02:19:50.507Z,2.90
2019-02-14T02:22:19.906Z,2.90
2019-02-14T02:24:49.376Z,2.90
2019-02-14T02:27:19.669Z,2.90
2019-02-14T02:29:49.006Z,2.90
2019-02-14T02:32:19.091Z,2.90
2019-02-14T02:34:48.793Z,2.90
2019-02-14T02:37:18.456Z,2.90
2019-02-14T02:39:47.797Z,2.90
2019-02-14T02:42:17.126Z,2.90
2019-02-14T02:44:46.591Z,2.90
2019-02-14T02:47:16.310Z,2.90
2019-02-14T02:49:45.750Z,2.80
2019-02-14T02:52:15.207Z,2.70
2019-02-14T02:54:44.550Z,2.70
2019-02-14T02:57:13.930Z,2.60
2019-02-14T02:59:43.266Z,2.70
2019-02-14T03:02:13.070Z,2.60
2019-02-14T03:04:42.386Z,2.60
2019-02-14T03:07:11.728Z,2.60
2019-02-14T03:09:41.092Z,2.60
2019-02-14T03:12:10.470Z,2.60
2019-02-14T03:14:39.839Z,2.60
2019-02-14T03:17:09.539Z,2.60
2019-02-14T03:19:38.894Z,2.60
2019-02-14T03:22:08.200Z,2.70
2019-02-14T03:24:37.863Z,2.60
2019-02-14T03:27:07.131Z,2.60
2019-02-14T03:29:36.495Z,2.60
2019-02-14T03:32:05.950Z,2.50
2019-02-14T03:34:35.707Z,2.50
2019-02-14T03:37:05.107Z,2.50
2019-02-14T03:39:34.561Z,2.50
2019-02-14T03:42:04.058Z,2.50
2019-02-14T03:44:33.433Z,2.50
2019-02-14T03:47:02.905Z,2.40
2019-02-14T03:49:32.214Z,2.40
2019-02-14T03:52:01.643Z,2.40
2019-02-14T03:54:31.048Z,2.40
2019-02-14T03:57:00.412Z,2.40
2019-02-14T03:59:30.354Z,2.40
2019-02-14T04:02:00.118Z,2.30
2019-02-14T04:04:29.467Z,2.30
2019-02-14T04:06:58.834Z,2.30
2019-02-14T04:09:28.170Z,2.30
2019-02-14T04:11:57.640Z,2.30
2019-02-14T04:14:27.056Z,2.30
2019-02-14T04:16:56.635Z,2.20
2019-02-14T04:19:26.122Z,2.20
2019-02-14T04:21:55.573Z,2.30
2019-02-14T04:24:24.850Z,2.20
2019-02-14T04:26:54.222Z,2.20
2019-02-14T04:29:23.559Z,2.20
2019-02-14T04:31:52.906Z,2.10
2019-02-14T04:34:22.535Z,2.10
2019-02-14T04:36:52.080Z,2.10
2019-02-14T04:39:21.462Z,2.20
2019-02-14T04:41:51.250Z,2.20
2019-02-14T04:44:22.133Z,2.20
2019-02-14T04:46:51.561Z,2.20
2019-02-14T04:49:21.127Z,2.20
2019-02-14T04:51:50.882Z,2.20
2019-02-14T04:54:20.213Z,2.20
2019-02-14T04:56:49.613Z,2.20
2019-02-14T04:59:18.933Z,2.20
2019-02-14T05:01:48.330Z,2.20
2019-02-14T05:04:17.651Z,2.10
2019-02-14T05:06:47.470Z,2.00
2019-02-14T05:09:17.202Z,2.00
2019-02-14T05:11:46.713Z,2.00
2019-02-14T05:14:16.082Z,1.90
2019-02-14T05:16:45.787Z,1.90
2019-02-14T05:19:15.454Z,1.80
2019-02-14T05:21:44.858Z,1.80
2019-02-14T05:24:14.238Z,1.70
2019-02-14T05:26:44.154Z,1.70
2019-02-14T05:29:13.557Z,1.70
2019-02-14T05:31:43.232Z,1.70
2019-02-14T05:34:12.598Z,1.70
2019-02-14T05:36:42.024Z,1.70
2019-02-14T05:39:11.403Z,1.80
2019-02-14T05:41:40.790Z,1.90
2019-02-14T05:44:10.144Z,1.80
2019-02-14T05:46:39.578Z,1.80
2019-02-14T05:49:09.859Z,1.80
2019-02-14T05:51:39.327Z,1.90
2019-02-14T05:54:10.374Z,1.80
2019-02-14T05:56:39.742Z,1.90
2019-02-14T05:59:09.159Z,1.80
2019-02-14T06:01:38.534Z,1.80
2019-02-14T06:04:07.979Z,1.70
2019-02-14T06:06:37.497Z,1.60
2019-02-14T06:09:07.498Z,1.60
2019-02-14T06:11:36.874Z,1.50
2019-02-14T06:14:06.285Z,1.50
2019-02-14T06:16:35.743Z,1.50
2019-02-14T06:19:05.130Z,1.50
2019-02-14T06:21:34.474Z,1.60
2019-02-14T06:24:05.849Z,1.60
2019-02-14T06:26:34.996Z,1.60
2019-02-14T06:29:04.525Z,1.60
2019-02-14T06:31:34.786Z,1.60
2019-02-14T06:34:04.147Z,1.60
2019-02-14T06:36:33.883Z,1.60
2019-02-14T06:39:04.945Z,1.60
2019-02-14T06:41:34.339Z,1.60
2019-02-14T06:44:03.897Z,1.50
2019-02-14T06:46:33.395Z,1.60
2019-02-14T06:49:02.810Z,1.60
2019-02-14T06:51:32.190Z,1.60
2019-02-14T06:54:01.618Z,1.60
2019-02-14T06:56:30.963Z,1.60
2019-02-14T06:59:00.311Z,1.60
2019-02-14T07:01:29.706Z,1.60
2019-02-14T07:03:59.109Z,1.50
2019-02-14T07:06:28.669Z,1.50
2019-02-14T07:08:58.186Z,1.50
2019-02-14T07:11:27.657Z,1.50
2019-02-14T07:13:57.032Z,1.50
2019-02-14T07:16:26.384Z,1.50
2019-02-14T07:18:55.917Z,1.50
2019-02-14T07:21:25.286Z,1.60
2019-02-14T07:23:54.675Z,1.70
2019-02-14T07:26:24.029Z,1.80
2019-02-14T07:28:53.849Z,1.80
2019-02-14T07:31:23.135Z,1.90
2019-02-14T07:33:52.675Z,1.90
2019-02-14T07:36:22.198Z,1.90
2019-02-14T07:38:51.587Z,1.90
2019-02-14T07:41:20.927Z,2.00
2019-02-14T07:43:50.316Z,2.00
2019-02-14T07:46:22.655Z,2.10
2019-02-14T07:48:51.173Z,2.20
2019-02-14T07:51:20.608Z,2.20
2019-02-14T07:53:49.996Z,2.30
2019-02-14T07:56:19.636Z,2.40
2019-02-14T07:58:49.059Z,2.40
2019-02-14T08:01:18.751Z,2.60
2019-02-14T08:03:48.142Z,2.70
2019-02-14T08:06:17.719Z,2.80
2019-02-14T08:08:47.125Z,2.90
2019-02-14T08:11:16.545Z,3.00
2019-02-14T08:13:45.978Z,3.10
2019-02-14T08:16:15.899Z,3.20
2019-02-14T08:18:45.388Z,3.30
2019-02-14T08:21:14.747Z,3.40
2019-02-14T08:23:44.531Z,3.50
2019-02-14T08:26:13.906Z,3.50
2019-02-14T08:28:43.251Z,3.50
2019-02-14T08:31:12.654Z,3.60
2019-02-14T08:33:42.110Z,3.60
2019-02-14T08:36:11.495Z,3.70
2019-02-14T08:38:40.919Z,3.80
2019-02-14T08:41:11.271Z,3.90
2019-02-14T08:43:41.067Z,4.00
2019-02-14T08:46:10.412Z,4.10
2019-02-14T08:48:39.924Z,4.20
2019-02-14T08:51:09.587Z,4.30
2019-02-14T08:53:39.089Z,4.40
2019-02-14T08:56:08.436Z,4.40
2019-02-14T08:58:37.746Z,4.50
2019-02-14T09:01:07.183Z,4.70
2019-02-14T09:03:36.607Z,4.80
2019-02-14T09:06:05.973Z,4.80
2019-02-14T09:08:35.354Z,5.00
2019-02-14T09:11:04.849Z,5.20
2019-02-14T09:13:34.433Z,5.20
2019-02-14T09:16:03.822Z,5.20
2019-02-14T09:18:33.230Z,5.30
2019-02-14T09:21:02.639Z,5.30
2019-02-14T09:23:32.004Z,5.50
2019-02-14T09:26:02.485Z,5.50
2019-02-14T09:28:32.038Z,5.50
2019-02-14T09:31:01.465Z,5.70
2019-02-14T09:33:30.904Z,5.70
2019-02-14T09:36:00.286Z,5.90
2019-02-14T09:38:29.814Z,6.00
2019-02-14T09:40:59.214Z,6.20
2019-02-14T09:43:30.069Z,6.30
2019-02-14T09:45:59.543Z,6.40
2019-02-14T09:48:30.844Z,6.50
2019-02-14T09:51:00.257Z,6.60
2019-02-14T09:53:29.591Z,6.60
2019-02-14T09:55:58.966Z,6.60
2019-02-14T09:58:28.307Z,6.70
2019-02-14T10:00:57.768Z,6.90
2019-02-14T10:03:27.226Z,7.10
2019-02-14T10:05:56.763Z,7.30
2019-02-14T10:08:26.240Z,7.40
2019-02-14T10:11:07.799Z,7.70
2019-02-14T10:13:37.244Z,7.70
2019-02-14T10:16:06.773Z,7.90
2019-02-14T10:18:36.218Z,7.90
2019-02-14T10:21:05.779Z,8.00
2019-02-14T10:23:35.218Z,8.00
2019-02-14T10:26:05.046Z,8.10
2019-02-14T10:28:34.600Z,8.20
2019-02-14T10:31:04.131Z,8.30
2019-02-14T10:33:33.630Z,8.30
2019-02-14T10:36:04.481Z,8.40
2019-02-14T10:38:34.313Z,8.50
2019-02-14T10:41:03.719Z,8.50
2019-02-14T10:43:33.114Z,8.60
2019-02-14T10:46:02.506Z,8.60
2019-02-14T10:48:32.374Z,8.60
2019-02-14T10:51:01.788Z,8.60
2019-02-14T10:53:31.223Z,8.60
2019-02-14T10:56:00.661Z,8.70
2019-02-14T10:58:30.075Z,8.70
2019-02-14T11:00:59.537Z,8.70
2019-02-14T11:03:29.139Z,8.70
2019-02-14T11:05:58.591Z,8.70
2019-02-14T11:08:31.569Z,8.70
2019-02-14T11:10:59.357Z,8.80
2019-02-14T11:13:28.750Z,8.90
2019-02-14T11:15:58.214Z,9.00
2019-02-14T11:18:27.617Z,9.00
2019-02-14T11:20:57.046Z,9.10
2019-02-14T11:23:26.446Z,9.10
2019-02-14T11:25:55.919Z,9.20
2019-02-14T11:28:25.802Z,9.20
2019-02-14T11:30:55.328Z,9.20
2019-02-14T11:33:24.705Z,9.30
2019-02-14T11:35:54.116Z,9.40
2019-02-14T11:38:23.670Z,9.50
2019-02-14T11:40:53.259Z,9.60
2019-02-14T11:43:22.796Z,9.70
2019-02-14T11:45:52.301Z,9.80
2019-02-14T11:48:21.836Z,9.90
2019-02-14T11:50:52.278Z,10.00
2019-02-14T11:53:21.697Z,10.10
2019-02-14T11:55:51.055Z,10.10
2019-02-14T11:58:20.435Z,10.30
2019-02-14T12:00:49.876Z,10.40
2019-02-14T12:03:19.321Z,10.50
2019-02-14T12:05:48.715Z,10.60
2019-02-14T12:08:18.228Z,10.70
2019-02-14T12:10:47.711Z,10.80
2019-02-14T12:13:17.191Z,10.90
2019-02-14T12:15:46.610Z,10.90
2019-02-14T12:18:16.013Z,10.90
2019-02-14T12:20:45.374Z,11.00
2019-02-14T12:23:14.843Z,11.10
2019-02-14T12:25:44.260Z,11.20
2019-02-14T12:28:13.651Z,11.30
2019-02-14T12:30:43.179Z,11.40
2019-02-14T12:33:12.648Z,11.50
2019-02-14T12:35:42.435Z,11.60
2019-02-14T12:38:11.894Z,11.60
2019-02-14T12:40:41.347Z,11.70
2019-02-14T12:43:10.811Z,11.70
2019-02-14T12:45:40.349Z,11.80
2019-02-14T12:48:09.819Z,11.90
2019-02-14T12:50:39.306Z,11.90
2019-02-14T12:53:08.842Z,11.90
2019-02-14T12:55:40.046Z,12.00
2019-02-14T12:58:09.474Z,12.10
2019-02-14T13:00:38.921Z,12.10
2019-02-14T13:03:08.283Z,12.10
2019-02-14T13:05:37.789Z,12.20
2019-02-14T13:08:07.221Z,12.20
2019-02-14T13:10:36.637Z,12.30
2019-02-14T13:13:06.102Z,12.40
2019-02-14T13:15:35.868Z,12.40
2019-02-14T13:18:05.309Z,12.50
2019-02-14T13:20:34.864Z,12.50
2019-02-14T13:23:04.369Z,12.50
2019-02-14T13:25:33.929Z,12.60
2019-02-14T13:28:03.410Z,12.60
2019-02-14T13:30:32.884Z,12.80
2019-02-14T13:33:02.320Z,12.80
2019-02-14T13:35:32.185Z,12.80
2019-02-14T13:38:01.613Z,12.90
2019-02-14T13:40:31.108Z,13.00
2019-02-14T13:43:00.472Z,13.00
2019-02-14T13:45:30.040Z,13.00
2019-02-14T13:47:59.454Z,13.10
2019-02-14T13:50:28.878Z,13.10
2019-02-14T13:52:58.315Z,13.10
2019-02-14T13:55:28.345Z,13.10
2019-02-14T13:57:58.057Z,13.10
2019-02-14T14:00:28.699Z,13.10
2019-02-14T14:02:58.169Z,13.10
2019-02-14T14:05:27.633Z,13.20
2019-02-14T14:07:57.179Z,13.20
2019-02-14T14:10:26.694Z,13.20
2019-02-14T14:12:56.141Z,13.30
2019-02-14T14:15:25.732Z,13.30
2019-02-14T14:17:55.200Z,13.30
2019-02-14T14:20:24.660Z,13.30
2019-02-14T14:22:54.089Z,13.30
2019-02-14T14:25:23.511Z,13.30
2019-02-14T14:27:52.937Z,13.30
2019-02-14T14:30:22.374Z,13.30
2019-02-14T14:32:51.763Z,13.40
2019-02-14T14:35:21.240Z,13.40
2019-02-14T14:37:50.713Z,13.40
2019-02-14T14:40:20.666Z,13.50
2019-02-14T14:43:09.032Z,13.40
2019-02-14T14:46:01.516Z,13.40
2019-02-14T14:48:42.246Z,13.40
2019-02-14T14:51:11.701Z,13.40
2019-02-14T14:53:41.264Z,13.40
2019-02-14T14:56:10.765Z,13.40
2019-02-14T14:58:40.157Z,13.40
2019-02-14T15:01:09.670Z,13.40
2019-02-14T15:03:40.676Z,13.40
2019-02-14T15:06:10.525Z,13.40
2019-02-14T15:08:40.049Z,13.40
2019-02-14T15:11:09.543Z,13.30
2019-02-14T15:13:38.947Z,13.30
2019-02-14T15:16:09.298Z,13.20
2019-02-14T15:18:41.126Z,13.10
2019-02-14T15:21:10.609Z,13.00
2019-02-14T15:23:40.084Z,13.00
2019-02-14T15:26:09.616Z,12.90
2019-02-14T15:28:40.384Z,12.80
2019-02-14T15:31:10.170Z,12.70
2019-02-14T15:33:40.008Z,12.60
2019-02-14T15:36:10.373Z,12.50
2019-02-14T15:38:39.948Z,12.40
2019-02-14T15:41:09.783Z,12.30
2019-02-14T15:43:39.311Z,12.20
2019-02-14T15:46:08.983Z,12.10
2019-02-14T15:48:38.466Z,12.10
2019-02-14T15:51:08.046Z,12.00
2019-02-14T15:53:37.484Z,11.90
2019-02-14T15:56:07.838Z,11.70
2019-02-14T15:58:37.490Z,11.70
2019-02-14T16:01:07.130Z,11.60
2019-02-14T16:03:38.403Z,11.40
2019-02-14T16:06:07.954Z,11.30
2019-02-14T16:08:37.842Z,11.20
2019-02-14T16:11:07.273Z,11.00
2019-02-14T16:13:36.668Z,10.90
2019-02-14T16:16:06.077Z,10.80
2019-02-14T16:18:35.496Z,10.70
2019-02-14T16:21:05.789Z,10.60
2019-02-14T16:23:36.093Z,10.50
2019-02-14T16:26:07.359Z,10.50
2019-02-14T16:28:37.788Z,10.40
2019-02-14T16:31:08.312Z,10.20
2019-02-14T16:33:37.719Z,10.10
2019-02-14T16:36:07.280Z,10.00
2019-02-14T16:38:37.197Z,9.80
2019-02-14T16:41:06.907Z,9.70
2019-02-14T16:43:36.760Z,9.60
2019-02-14T16:46:07.501Z,9.50
2019-02-14T16:48:37.040Z,9.40
2019-02-14T16:51:07.043Z,9.30
2019-02-14T16:53:36.901Z,9.20
2019-02-14T16:56:06.543Z,9.10
2019-02-14T16:58:36.019Z,9.00
2019-02-14T17:01:05.624Z,8.90
2019-02-14T17:03:35.514Z,8.80
2019-02-14T17:06:05.039Z,8.60
2019-02-14T17:08:34.650Z,8.50
2019-02-14T17:11:04.611Z,8.40
2019-02-14T17:13:34.140Z,8.40
2019-02-14T17:16:03.669Z,8.20
2019-02-14T17:18:33.280Z,8.10
2019-02-14T17:21:02.886Z,8.10
2019-02-14T17:23:32.468Z,8.00
2019-02-14T17:26:02.202Z,7.70
2019-02-14T17:28:31.655Z,7.50
2019-02-14T17:31:04.369Z,7.30
2019-02-14T17:33:33.938Z,7.20
2019-02-14T17:36:04.350Z,7.10
2019-02-14T17:38:33.914Z,7.10
2019-02-14T17:41:03.534Z,7.00
2019-02-14T17:43:33.157Z,6.90
2019-02-14T17:46:02.810Z,6.80
2019-02-14T17:48:33.371Z,6.60
2019-02-14T17:51:03.479Z,6.50
2019-02-14T17:53:33.270Z,6.40
2019-02-14T17:56:02.897Z,6.30
2019-02-14T17:58:32.823Z,6.30
2019-02-14T18:01:02.556Z,6.20
2019-02-14T18:03:32.303Z,6.10
2019-02-14T18:06:01.911Z,6.10
2019-02-14T18:08:31.504Z,6.10
2019-02-14T18:11:01.054Z,6.00
2019-02-14T18:13:30.828Z,5.90
2019-02-14T18:16:01.782Z,5.80
2019-02-14T18:18:31.377Z,5.50
2019-02-14T18:21:02.053Z,5.40
2019-02-14T18:23:31.567Z,5.30
2019-02-14T18:26:01.471Z,5.20
2019-02-14T18:28:31.559Z,5.20
2019-02-14T18:31:01.202Z,5.20
2019-02-14T18:33:33.976Z,5.10
2019-02-14T18:36:03.744Z,5.10
2019-02-14T18:38:33.569Z,5.00
2019-02-14T18:41:04.337Z,4.90
2019-02-14T18:43:35.339Z,4.90
2019-02-14T18:46:05.510Z,4.90
2019-02-14T18:48:39.400Z,4.80
2019-02-14T18:51:09.794Z,4.80
2019-02-14T18:53:39.882Z,4.80
2019-02-14T18:56:12.342Z,4.80
2019-02-14T18:58:42.112Z,4.80
2019-02-14T19:01:12.847Z,4.80
2019-02-14T19:03:43.182Z,4.70
2019-02-14T19:06:12.917Z,4.70
2019-02-14T19:08:43.911Z,4.70
2019-02-14T19:11:15.397Z,4.60
2019-02-14T19:13:45.268Z,4.50
2019-02-14T19:16:15.873Z,4.40
2019-02-14T19:18:45.533Z,4.30
2019-02-14T19:21:15.207Z,4.30
2019-02-14T19:23:46.071Z,4.20
2019-02-14T19:26:16.046Z,4.20
2019-02-14T19:28:46.546Z,4.00
2019-02-14T19:31:16.217Z,4.00
2019-02-14T19:33:45.836Z,3.90
2019-02-14T19:36:19.754Z,3.80
2019-02-14T19:38:49.663Z,3.80
2019-02-14T19:41:25.253Z,3.80
2019-02-14T19:43:50.986Z,3.70
2019-02-14T19:46:20.688Z,3.70
2019-02-14T19:48:52.668Z,3.70
2019-02-14T19:51:24.742Z,3.60
2019-02-14T19:53:54.769Z,3.40
2019-02-14T19:56:27.179Z,3.40
2019-02-14T19:58:58.987Z,3.40
2019-02-14T20:01:30.507Z,3.40
2019-02-14T20:04:01.634Z,3.30
2019-02-14T20:06:32.237Z,3.40
2019-02-14T20:09:03.806Z,3.30
2019-02-14T20:11:37.617Z,3.30
2019-02-14T20:14:11.737Z,3.30
2019-02-14T20:16:42.767Z,3.30
2019-02-14T20:19:13.507Z,3.20
2019-02-14T20:21:44.449Z,3.20
2019-02-14T20:24:17.206Z,3.20
2019-02-14T20:26:46.906Z,3.20
2019-02-14T20:29:16.681Z,3.10
2019-02-14T20:31:46.963Z,3.10
2019-02-14T20:34:20.049Z,3.10
2019-02-14T20:36:52.699Z,3.10
2019-02-14T20:39:24.350Z,3.10
2019-02-14T20:41:54.354Z,3.10
2019-02-14T20:44:24.087Z,3.10
2019-02-14T20:46:54.069Z,3.10
2019-02-14T20:49:23.659Z,3.10
2019-02-14T20:51:53.364Z,3.10
2019-02-14T20:54:22.900Z,3.20
2019-02-14T20:56:52.458Z,3.10
2019-02-14T20:59:22.100Z,3.10
2019-02-14T21:01:51.687Z,3.00
2019-02-14T21:04:22.378Z,3.00
2019-02-14T21:06:51.975Z,3.00
2019-02-14T21:09:21.889Z,3.00
2019-02-14T21:11:54.619Z,3.00
2019-02-14T21:14:22.924Z,3.00
2019-02-14T21:16:52.507Z,3.00
2019-02-14T21:19:22.425Z,3.10
2019-02-14T21:21:52.093Z,3.20
2019-02-14T21:24:22.272Z,3.30
2019-02-14T21:26:52.670Z,3.40
2019-02-14T21:29:22.164Z,3.40
2019-02-14T21:31:51.712Z,3.50
2019-02-14T21:34:21.341Z,3.50
2019-02-14T21:36:50.908Z,3.50
2019-02-14T21:39:20.543Z,3.60
2019-02-14T21:41:50.028Z,3.60
2019-02-14T21:44:19.547Z,3.70
2019-02-14T21:46:49.037Z,3.70
2019-02-14T21:49:18.569Z,3.60
2019-02-14T21:51:48.124Z,3.60
2019-02-14T21:54:18.122Z,3.60
2019-02-14T21:56:48.139Z,3.60
2019-02-14T21:59:20.104Z,3.60
2019-02-14T22:01:49.695Z,3.60
2019-02-14T22:04:19.160Z,3.60
2019-02-14T22:06:48.655Z,3.60
2019-02-14T22:09:18.253Z,3.60
2019-02-14T22:11:48.328Z,3.60
2019-02-14T22:14:17.938Z,3.60
2019-02-14T22:16:48.209Z,3.50
2019-02-14T22:19:18.272Z,3.50
2019-02-14T22:21:47.887Z,3.50
2019-02-14T22:24:18.057Z,3.40
2019-02-14T22:26:47.993Z,3.40
2019-02-14T22:29:18.035Z,3.40
2019-02-14T22:31:47.821Z,3.30
2019-02-14T22:34:17.287Z,3.40
2019-02-14T22:36:46.824Z,3.40
2019-02-14T22:39:16.350Z,3.40
2019-02-14T22:41:45.731Z,3.40
2019-02-14T22:44:15.723Z,3.30
2019-02-14T22:46:45.139Z,3.30
2019-02-14T22:49:14.669Z,3.30
2019-02-14T22:51:44.056Z,3.30
2019-02-14T22:54:14.144Z,3.30
2019-02-14T22:56:43.787Z,3.30
2019-02-14T22:59:13.375Z,3.30
2019-02-14T23:01:44.351Z,3.30
2019-02-14T23:04:13.751Z,3.30
2019-02-14T23:06:43.155Z,3.30
2019-02-14T23:09:12.887Z,3.20
2019-02-14T23:11:42.290Z,3.30
2019-02-14T23:14:11.739Z,3.30
2019-02-14T23:16:41.196Z,3.20
2019-02-14T23:19:10.770Z,3.20
2019-02-14T23:21:40.154Z,3.20
2019-02-14T23:24:10.165Z,3.20
2019-02-14T23:26:41.039Z,3.20
2019-02-14T23:29:11.335Z,3.10
2019-02-14T23:31:41.136Z,3.10
2019-02-14T23:34:10.919Z,3.10
2019-02-14T23:36:40.597Z,3.10
2019-02-14T23:39:11.615Z,3.10
2019-02-14T23:41:41.033Z,3.00
2019-02-14T23:44:10.413Z,3.00
2019-02-14T23:46:39.845Z,3.00
2019-02-14T23:49:09.224Z,2.90
2019-02-14T23:51:38.866Z,2.90
2019-02-14T23:54:08.207Z,2.90
2019-02-14T23:56:38.854Z,2.90
2019-02-14T23:59:09.504Z,2.90
